createdAt,value
2018-09-05T00:02:14.856Z,98140.45
2018-09-05T00:04:44.274Z,98151.44
2018-09-05T00:07:13.672Z,98148.98
2018-09-05T00:09:43.075Z,98143.55
2018-09-05T00:12:12.437Z,98146.81
2018-09-05T00:14:41.905Z,98146.81
2018-09-05T00:17:11.251Z,98146.06
2018-09-05T00:19:40.736Z,98148.79
2018-09-05T00:22:10.070Z,98151.79
2018-09-05T00:24:39.644Z,98149.75
2018-09-05T00:27:09.011Z,98149.38
2018-09-05T00:29:38.402Z,98152.02
2018-09-05T00:32:07.798Z,98152.03
2018-09-05T00:34:37.181Z,98148.28
2018-09-05T00:37:06.634Z,98145.33
2018-09-05T00:39:35.997Z,98149.95
2018-09-05T00:42:05.463Z,98154.39
2018-09-05T00:44:34.836Z,98154.43
2018-09-05T00:47:04.246Z,98157.88
2018-09-05T00:49:33.632Z,98156.62
2018-09-05T00:52:03.047Z,98159.76
2018-09-05T00:54:32.421Z,98154.30
2018-09-05T00:57:01.827Z,98154.73
2018-09-05T00:59:31.194Z,98148.48
2018-09-05T01:02:00.685Z,98152.38
2018-09-05T01:04:30.053Z,98149.86
2018-09-05T01:06:59.474Z,98150.81
2018-09-05T01:09:28.876Z,98155.55
2018-09-05T01:11:58.263Z,98153.44
2018-09-05T01:14:27.652Z,98147.50
2018-09-05T01:16:57.032Z,98157.94
2018-09-05T01:19:26.441Z,98158.45
2018-09-05T01:21:55.865Z,98162.36
2018-09-05T01:24:25.292Z,98154.83
2018-09-05T01:26:54.659Z,98154.02
2018-09-05T01:29:24.038Z,98152.14
2018-09-05T01:31:53.410Z,98148.33
2018-09-05T01:34:22.871Z,98148.91
2018-09-05T01:36:52.253Z,98148.98
2018-09-05T01:39:21.681Z,98156.31
2018-09-05T01:41:51.086Z,98154.66
2018-09-05T01:44:20.473Z,98156.06
2018-09-05T01:46:49.850Z,98152.88
2018-09-05T01:49:19.294Z,98152.64
2018-09-05T01:51:48.656Z,98154.34
2018-09-05T01:54:18.032Z,98153.91
2018-09-05T01:56:47.489Z,98158.31
2018-09-05T01:59:16.888Z,98161.88
2018-09-05T02:01:46.843Z,98157.64
2018-09-05T02:04:16.457Z,98156.80
2018-09-05T02:06:45.932Z,98153.03
2018-09-05T02:09:15.574Z,98148.44
2018-09-05T02:11:45.070Z,98155.60
2018-09-05T02:14:14.440Z,98158.64
2018-09-05T02:16:43.986Z,98163.55
2018-09-05T02:19:13.337Z,98168.12
2018-09-05T02:21:42.747Z,98165.69
2018-09-05T02:24:12.098Z,98161.92
2018-09-05T02:26:41.564Z,98160.47
2018-09-05T02:29:10.933Z,98162.66
2018-09-05T02:31:40.351Z,98155.56
2018-09-05T02:34:09.745Z,98157.37
2018-09-05T02:36:39.163Z,98150.96
2018-09-05T02:39:10.442Z,98149.30
2018-09-05T02:41:40.152Z,98148.47
2018-09-05T02:44:14.776Z,98157.05
2018-09-05T02:46:44.130Z,98156.22
2018-09-05T02:49:13.539Z,98152.46
2018-09-05T02:51:42.906Z,98153.73
2018-09-05T02:54:12.352Z,98150.75
2018-09-05T02:56:41.723Z,98150.52
2018-09-05T02:59:11.182Z,98151.13
2018-09-05T03:01:40.561Z,98152.34
2018-09-05T03:04:09.968Z,98155.39
2018-09-05T03:06:39.342Z,98157.21
2018-09-05T03:09:09.433Z,98157.61
2018-09-05T03:11:38.828Z,98157.98
2018-09-05T03:14:08.185Z,98151.56
2018-09-05T03:16:37.608Z,98147.58
2018-09-05T03:19:06.974Z,98157.94
2018-09-05T03:21:36.393Z,98164.34
2018-09-05T03:24:05.886Z,98163.91
2018-09-05T03:26:35.334Z,98158.41
2018-09-05T03:29:04.710Z,98164.34
2018-09-05T03:31:34.114Z,98164.89
2018-09-05T03:34:03.516Z,98168.65
2018-09-05T03:36:32.919Z,98171.05
2018-09-05T03:39:02.301Z,98177.52
2018-09-05T03:41:31.727Z,98175.90
2018-09-05T03:44:01.091Z,98173.31
2018-09-05T03:46:30.555Z,98179.34
2018-09-05T03:48:59.943Z,98183.45
2018-09-05T03:51:29.354Z,98182.56
2018-09-05T03:53:58.721Z,98187.61
2018-09-05T03:56:28.140Z,98189.38
2018-09-05T03:58:57.515Z,98187.27
2018-09-05T04:01:27.047Z,98183.39
2018-09-05T04:03:56.422Z,98186.72
2018-09-05T04:06:25.849Z,98192.39
2018-09-05T04:08:55.232Z,98186.55
2018-09-05T04:11:24.667Z,98187.78
2018-09-05T04:13:54.057Z,98192.92
2018-09-05T04:16:23.459Z,98193.40
2018-09-05T04:18:52.843Z,98190.69
2018-09-05T04:21:22.267Z,98188.62
2018-09-05T04:23:51.630Z,98186.55
2018-09-05T04:26:21.100Z,98189.55
2018-09-05T04:28:50.478Z,98192.48
2018-09-05T04:31:19.883Z,98189.14
2018-09-05T04:33:49.247Z,98184.02
2018-09-05T04:36:18.666Z,98186.16
2018-09-05T04:38:48.059Z,98182.78
2018-09-05T04:41:17.479Z,98182.01
2018-09-05T04:43:46.858Z,98184.14
2018-09-05T04:46:16.284Z,98183.30
2018-09-05T04:48:45.662Z,98186.20
2018-09-05T04:51:15.035Z,98192.52
2018-09-05T04:53:44.518Z,98186.59
2018-09-05T04:56:13.899Z,98190.03
2018-09-05T04:58:43.303Z,98198.41
2018-09-05T05:01:12.667Z,98203.94
2018-09-05T05:03:42.115Z,98197.18
2018-09-05T05:06:11.458Z,98196.34
2018-09-05T05:08:40.908Z,98199.28
2018-09-05T05:11:10.274Z,98198.80
2018-09-05T05:13:39.647Z,98199.63
2018-09-05T05:16:09.114Z,98195.77
2018-09-05T05:18:38.474Z,98202.53
2018-09-05T05:21:07.943Z,98201.66
2018-09-05T05:23:37.371Z,98204.77
2018-09-05T05:26:06.836Z,98203.06
2018-09-05T05:28:36.222Z,98203.84
2018-09-05T05:31:05.649Z,98212.67
2018-09-05T05:33:35.037Z,98210.61
2018-09-05T05:36:04.851Z,98216.79
2018-09-05T05:38:34.229Z,98219.69
2018-09-05T05:41:03.639Z,98219.50
2018-09-05T05:43:33.051Z,98218.28
2018-09-05T05:46:02.457Z,98217.00
2018-09-05T05:48:31.828Z,98217.09
2018-09-05T05:51:01.283Z,98220.39
2018-09-05T05:53:30.651Z,98218.63
2018-09-05T05:56:00.193Z,98216.41
2018-09-05T05:58:29.710Z,98226.12
2018-09-05T06:00:59.264Z,98225.19
2018-09-05T06:03:28.554Z,98229.01
2018-09-05T06:05:58.031Z,98234.05
2018-09-05T06:08:27.381Z,98226.54
2018-09-05T06:10:56.781Z,98227.82
2018-09-05T06:13:26.145Z,98224.61
2018-09-05T06:15:55.523Z,98220.17
2018-09-05T06:18:24.979Z,98217.79
2018-09-05T06:20:54.542Z,98215.84
2018-09-05T06:23:23.977Z,98215.40
2018-09-05T06:25:53.362Z,98214.88
2018-09-05T06:28:22.800Z,98211.14
2018-09-05T06:30:52.180Z,98214.69
2018-09-05T06:33:21.518Z,98202.04
2018-09-05T06:35:50.874Z,98206.05
2018-09-05T06:38:20.306Z,98210.69
2018-09-05T06:40:49.683Z,98205.50
2018-09-05T06:43:19.119Z,98207.45
2018-09-05T06:45:48.494Z,98206.41
2018-09-05T06:48:17.919Z,98204.58
2018-09-05T06:50:47.474Z,98209.55
2018-09-05T06:53:17.272Z,98209.39
2018-09-05T06:55:46.658Z,98209.00
2018-09-05T06:58:16.097Z,98209.33
2018-09-05T07:00:45.426Z,98205.14
2018-09-05T07:03:14.861Z,98208.61
2018-09-05T07:05:44.254Z,98217.11
2018-09-05T07:08:13.650Z,98210.45
2018-09-05T07:10:43.002Z,98210.52
2018-09-05T07:13:12.365Z,98210.53
2018-09-05T07:15:41.758Z,98208.92
2018-09-05T07:18:11.130Z,98208.50
2018-09-05T07:20:40.544Z,98211.81
2018-09-05T07:23:09.910Z,98204.22
2018-09-05T07:25:39.361Z,98206.95
2018-09-05T07:28:08.722Z,98211.01
2018-09-05T07:30:38.268Z,98208.81
2018-09-05T07:33:07.559Z,98201.45
2018-09-05T07:35:37.040Z,98203.42
2018-09-05T07:38:06.366Z,98203.30
2018-09-05T07:40:39.237Z,98208.84
2018-09-05T07:43:08.631Z,98206.13
2018-09-05T07:45:38.068Z,98207.93
2018-09-05T07:48:07.422Z,98210.22
2018-09-05T07:50:36.907Z,98215.18
2018-09-05T07:53:06.263Z,98218.68
2018-09-05T07:55:35.701Z,98225.80
2018-09-05T07:58:05.273Z,98227.89
2018-09-05T08:00:34.830Z,98224.56
2018-09-05T08:03:04.244Z,98229.66
2018-09-05T08:05:33.575Z,98230.19
2018-09-05T08:08:03.013Z,98221.84
2018-09-05T08:10:32.389Z,98223.23
2018-09-05T08:13:01.742Z,98225.13
2018-09-05T08:15:31.187Z,98224.35
2018-09-05T08:18:00.575Z,98218.52
2018-09-05T08:20:30.013Z,98220.67
2018-09-05T08:22:59.385Z,98218.78
2018-09-05T08:25:28.872Z,98221.91
2018-09-05T08:27:58.234Z,98221.12
2018-09-05T08:30:27.618Z,98222.41
2018-09-05T08:32:56.965Z,98219.46
2018-09-05T08:35:26.592Z,98212.20
2018-09-05T08:37:55.905Z,98214.45
2018-09-05T08:40:25.283Z,98216.97
2018-09-05T08:42:54.651Z,98214.37
2018-09-05T08:45:24.227Z,98214.20
2018-09-05T08:47:53.466Z,98214.11
2018-09-05T08:50:22.740Z,98216.28
2018-09-05T08:52:52.145Z,98216.59
2018-09-05T08:55:21.621Z,98212.66
2018-09-05T08:57:50.879Z,98214.34
2018-09-05T09:00:20.355Z,98211.28
2018-09-05T09:02:49.726Z,98214.91
2018-09-05T09:05:19.149Z,98212.73
2018-09-05T09:07:48.518Z,98213.92
2018-09-05T09:10:17.950Z,98211.56
2018-09-05T09:12:47.286Z,98208.62
2018-09-05T09:15:16.756Z,98209.48
2018-09-05T09:17:46.198Z,98208.03
2018-09-05T09:20:15.679Z,98207.14
2018-09-05T09:22:45.034Z,98209.50
2018-09-05T09:25:14.461Z,98205.28
2018-09-05T09:27:43.815Z,98198.69
2018-09-05T09:30:13.294Z,98201.30
2018-09-05T09:32:42.654Z,98198.33
2018-09-05T09:35:12.083Z,98188.31
2018-09-05T09:37:41.438Z,98183.96
2018-09-05T09:40:10.880Z,98180.73
2018-09-05T09:42:40.530Z,98182.83
2018-09-05T09:45:10.017Z,98177.81
2018-09-05T09:47:39.375Z,98178.86
2018-09-05T09:50:08.790Z,98175.27
2018-09-05T09:52:38.461Z,98174.33
2018-09-05T09:55:09.494Z,98171.32
2018-09-05T09:57:39.002Z,98162.28
2018-09-05T10:00:09.015Z,98164.89
2018-09-05T10:02:43.862Z,98161.11
2018-09-05T10:05:18.669Z,98154.89
2018-09-05T10:07:53.308Z,98155.13
2018-09-05T10:10:27.976Z,98151.70
2018-09-05T10:13:02.458Z,98147.48
2018-09-05T10:15:37.178Z,98144.95
2018-09-05T10:18:11.795Z,98144.51
2018-09-05T10:20:41.150Z,98142.23
2018-09-05T10:23:10.554Z,98139.47
2018-09-05T10:25:39.918Z,98138.34
2018-09-05T10:28:09.359Z,98138.75
2018-09-05T10:30:38.766Z,98139.28
2018-09-05T10:33:08.118Z,98140.03
2018-09-05T10:35:37.581Z,98132.05
2018-09-05T10:38:06.932Z,98139.07
2018-09-05T10:40:36.388Z,98138.55
2018-09-05T10:43:05.753Z,98134.37
2018-09-05T10:45:35.173Z,98125.04
2018-09-05T10:48:04.526Z,98127.13
2018-09-05T10:50:33.995Z,98123.16
2018-09-05T10:53:03.387Z,98118.17
2018-09-05T10:55:32.782Z,98116.28
2018-09-05T10:58:02.183Z,98110.03
2018-09-05T11:00:31.598Z,98113.30
2018-09-05T11:03:01.022Z,98105.55
2018-09-05T11:05:30.398Z,98095.52
2018-09-05T11:07:59.769Z,98101.89
2018-09-05T11:10:29.262Z,98093.42
2018-09-05T11:12:58.577Z,98087.13
2018-09-05T11:15:28.011Z,98085.78
2018-09-05T11:17:57.402Z,98087.56
2018-09-05T11:20:26.742Z,98085.78
2018-09-05T11:22:56.094Z,98089.17
2018-09-05T11:25:25.518Z,98085.16
2018-09-05T11:27:54.878Z,98081.37
2018-09-05T11:30:24.347Z,98078.20
2018-09-05T11:32:53.719Z,98079.75
2018-09-05T11:35:23.110Z,98074.54
2018-09-05T11:37:52.477Z,98073.45
2018-09-05T11:40:21.908Z,98070.88
2018-09-05T11:42:51.258Z,98071.22
2018-09-05T11:45:20.614Z,98075.73
2018-09-05T11:47:49.971Z,98075.41
2018-09-05T11:50:19.322Z,98066.54
2018-09-05T11:52:48.660Z,98063.09
2018-09-05T11:55:18.034Z,98066.36
2018-09-05T11:57:47.405Z,98063.95
2018-09-05T12:00:16.850Z,98068.56
2018-09-05T12:02:46.214Z,98059.95
2018-09-05T12:05:15.651Z,98067.07
2018-09-05T12:07:44.994Z,98064.48
2018-09-05T12:10:14.702Z,98063.38
2018-09-05T12:12:44.089Z,98030.81
2018-09-05T12:15:13.488Z,98057.62
2018-09-05T12:17:42.847Z,98053.79
2018-09-05T12:20:12.404Z,98052.48
2018-09-05T12:22:41.750Z,98051.29
2018-09-05T12:25:11.554Z,98050.39
2018-09-05T12:27:40.922Z,98048.32
2018-09-05T12:30:10.873Z,98041.23
2018-09-05T12:32:40.263Z,98045.13
2018-09-05T12:35:09.750Z,98045.68
2018-09-05T12:37:39.131Z,98041.41
2018-09-05T12:40:08.525Z,98045.31
2018-09-05T12:42:37.869Z,98042.47
2018-09-05T12:45:07.347Z,98036.19
2018-09-05T12:47:36.712Z,98036.72
2018-09-05T12:50:06.351Z,98034.87
2018-09-05T12:52:35.697Z,98035.14
2018-09-05T12:55:05.350Z,98028.39
2018-09-05T12:57:34.769Z,98027.55
2018-09-05T13:00:04.165Z,98019.27
2018-09-05T13:02:33.598Z,98021.44
2018-09-05T13:05:03.007Z,98021.53
2018-09-05T13:07:32.377Z,98015.41
2018-09-05T13:10:01.799Z,98013.97
2018-09-05T13:12:31.162Z,98007.54
2018-09-05T13:15:00.610Z,98008.41
2018-09-05T13:17:29.965Z,98000.48
2018-09-05T13:19:59.351Z,97998.52
2018-09-05T13:22:28.738Z,97998.69
2018-09-05T13:24:58.191Z,97998.17
2018-09-05T13:27:27.566Z,97995.36
2018-09-05T13:29:56.981Z,98000.61
2018-09-05T13:32:26.349Z,97995.84
2018-09-05T13:34:55.785Z,97989.00
2018-09-05T13:37:25.162Z,97988.97
2018-09-05T13:39:54.599Z,97979.06
2018-09-05T13:42:23.990Z,97983.46
2018-09-05T13:44:53.389Z,97980.75
2018-09-05T13:47:22.754Z,97983.08
2018-09-05T13:49:52.218Z,97978.94
2018-09-05T13:52:21.656Z,97973.34
2018-09-05T13:54:51.204Z,97969.20
2018-09-05T13:57:20.681Z,97967.66
2018-09-05T13:59:50.264Z,97967.52
2018-09-05T14:02:19.806Z,97964.10
2018-09-05T14:04:49.243Z,97964.90
2018-09-05T14:07:19.052Z,97958.77
2018-09-05T14:09:49.069Z,97957.98
2018-09-05T14:12:18.661Z,97969.44
2018-09-05T14:14:48.084Z,97961.44
2018-09-05T14:17:17.522Z,97962.75
2018-09-05T14:19:47.611Z,97959.31
2018-09-05T14:22:17.891Z,97962.12
2018-09-05T14:24:47.355Z,97959.08
2018-09-05T14:27:16.824Z,97955.01
2018-09-05T14:29:46.419Z,97952.44
2018-09-05T14:32:15.923Z,97947.66
2018-09-05T14:34:45.512Z,97946.49
2018-09-05T14:37:15.446Z,97944.98
2018-09-05T14:39:44.866Z,97943.81
2018-09-05T14:42:14.401Z,97942.97
2018-09-05T14:44:43.818Z,97943.85
2018-09-05T14:47:13.428Z,97942.50
2018-09-05T14:49:42.947Z,97943.58
2018-09-05T14:52:12.455Z,97936.07
2018-09-05T14:54:41.908Z,97935.56
2018-09-05T14:57:11.447Z,97935.91
2018-09-05T14:59:41.039Z,97934.92
2018-09-05T15:02:10.455Z,97933.27
2018-09-05T15:04:40.003Z,97930.59
2018-09-05T15:07:09.446Z,97932.89
2018-09-05T15:09:38.815Z,97927.02
2018-09-05T15:12:08.194Z,97922.16
2018-09-05T15:14:37.595Z,97921.85
2018-09-05T15:17:07.162Z,97922.48
2018-09-05T15:19:36.550Z,97916.91
2018-09-05T15:22:06.335Z,97920.97
2018-09-05T15:24:35.694Z,97913.66
2018-09-05T15:27:05.340Z,97906.48
2018-09-05T15:29:35.468Z,97915.92
2018-09-05T15:32:05.069Z,97912.56
2018-09-05T15:34:34.471Z,97909.97
2018-09-05T15:37:04.031Z,97906.03
2018-09-05T15:39:33.591Z,97904.61
2018-09-05T15:42:03.163Z,97904.58
2018-09-05T15:44:32.617Z,97899.34
2018-09-05T15:47:02.202Z,97902.62
2018-09-05T15:49:31.563Z,97898.80
2018-09-05T15:52:00.975Z,97900.81
2018-09-05T15:54:30.362Z,97895.39
2018-09-05T15:56:59.770Z,97901.93
2018-09-05T15:59:29.137Z,97903.65
2018-09-05T16:01:58.703Z,97900.06
2018-09-05T16:04:28.071Z,97896.78
2018-09-05T16:06:57.446Z,97896.88
2018-09-05T16:09:26.883Z,97895.45
2018-09-05T16:11:56.312Z,97897.80
2018-09-05T16:14:25.712Z,97894.88
2018-09-05T16:16:55.062Z,97888.53
2018-09-05T16:19:24.486Z,97893.77
2018-09-05T16:21:53.872Z,97892.46
2018-09-05T16:24:23.231Z,97890.83
2018-09-05T16:26:52.594Z,97892.42
2018-09-05T16:29:23.418Z,97889.25
2018-09-05T16:31:52.929Z,97890.19
2018-09-05T16:34:22.522Z,97889.73
2018-09-05T16:36:52.245Z,97893.33
2018-09-05T16:39:21.514Z,97891.11
2018-09-05T16:41:50.784Z,97892.34
2018-09-05T16:44:20.116Z,97893.41
2018-09-05T16:46:49.360Z,97896.00
2018-09-05T16:49:18.536Z,97893.88
2018-09-05T16:51:47.738Z,97891.70
2018-09-05T16:54:16.927Z,97894.02
2018-09-05T16:56:46.125Z,97892.07
2018-09-05T16:59:15.322Z,97891.29
2018-09-05T17:01:44.510Z,97882.27
2018-09-05T17:04:13.719Z,97885.27
2018-09-05T17:06:42.887Z,97880.83
2018-09-05T17:09:13.238Z,97887.16
2018-09-05T17:11:42.423Z,97890.52
2018-09-05T17:14:11.608Z,97894.33
2018-09-05T17:16:40.814Z,97894.54
2018-09-05T17:19:10.231Z,97892.91
2018-09-05T17:21:39.441Z,97894.31
2018-09-05T17:24:08.647Z,97893.55
2018-09-05T17:26:37.825Z,97898.20
2018-09-05T17:29:07.432Z,97900.23
2018-09-05T17:31:36.892Z,97900.17
2018-09-05T17:34:06.758Z,97895.19
2018-09-05T17:36:36.534Z,97891.61
2018-09-05T17:39:09.818Z,97892.05
2018-09-05T17:41:39.666Z,97891.38
2018-09-05T17:44:09.744Z,97890.27
2018-09-05T17:46:39.140Z,97894.27
2018-09-05T17:49:08.804Z,97891.15
2018-09-05T17:51:38.016Z,97889.64
2018-09-05T17:54:07.345Z,97891.08
2018-09-05T17:56:36.637Z,97883.89
2018-09-05T17:59:05.996Z,97892.24
2018-09-05T18:01:35.181Z,97896.36
2018-09-05T18:04:04.333Z,97894.77
2018-09-05T18:06:33.503Z,97896.47
2018-09-05T18:09:03.832Z,97898.00
2018-09-05T18:11:33.035Z,97897.22
2018-09-05T18:14:02.226Z,97901.44
2018-09-05T18:16:31.557Z,97894.75
2018-09-05T18:19:00.819Z,97895.78
2018-09-05T18:21:30.001Z,97890.27
2018-09-05T18:23:59.177Z,97896.25
2018-09-05T18:26:29.231Z,97897.31
2018-09-05T18:28:58.750Z,97896.91
2018-09-05T18:31:28.005Z,97903.33
2018-09-05T18:33:57.464Z,97907.44
2018-09-05T18:36:26.615Z,97904.78
2018-09-05T18:38:55.854Z,97905.71
2018-09-05T18:41:25.119Z,97911.56
2018-09-05T18:43:54.412Z,97915.89
2018-09-05T18:46:23.671Z,97913.94
2018-09-05T18:48:52.923Z,97908.02
2018-09-05T18:51:22.114Z,97908.03
2018-09-05T18:53:51.358Z,97907.89
2018-09-05T18:56:20.582Z,97908.58
2018-09-05T18:58:49.842Z,97911.16
2018-09-05T19:01:19.087Z,97905.70
2018-09-05T19:03:48.562Z,97901.10
2018-09-05T19:06:17.902Z,97898.50
2018-09-05T19:08:47.318Z,97905.11
2018-09-05T19:11:17.080Z,97903.06
2018-09-05T19:13:46.575Z,97893.44
2018-09-05T19:16:16.093Z,97898.66
2018-09-05T19:18:45.489Z,97895.92
2018-09-05T19:21:14.852Z,97896.29
2018-09-05T19:23:44.334Z,97897.11
2018-09-05T19:26:13.692Z,97895.82
2018-09-05T19:28:43.094Z,97901.72
2018-09-05T19:31:12.468Z,97895.10
2018-09-05T19:33:41.829Z,97896.54
2018-09-05T19:36:11.241Z,97898.34
2018-09-05T19:38:40.538Z,97895.11
2018-09-05T19:41:09.926Z,97896.83
2018-09-05T19:43:39.449Z,97895.09
2018-09-05T19:46:08.990Z,97904.13
2018-09-05T19:48:38.374Z,97908.82
2018-09-05T19:51:07.838Z,97902.84
2018-09-05T19:53:37.415Z,97910.10
2018-09-05T19:56:06.907Z,97905.87
2018-09-05T19:58:36.414Z,97905.59
2018-09-05T20:01:05.841Z,97908.49
2018-09-05T20:03:35.302Z,97908.34
2018-09-05T20:06:04.958Z,97909.41
2018-09-05T20:08:34.325Z,97907.08
2018-09-05T20:11:03.629Z,97910.64
2018-09-05T20:13:33.024Z,97900.28
2018-09-05T20:16:02.358Z,97906.20
2018-09-05T20:18:31.769Z,97906.78
2018-09-05T20:21:01.348Z,97904.22
2018-09-05T20:23:30.776Z,97904.08
2018-09-05T20:26:00.099Z,97904.09
2018-09-05T20:28:29.454Z,97903.16
2018-09-05T20:30:58.862Z,97897.89
2018-09-05T20:33:28.087Z,97902.16
2018-09-05T20:35:57.250Z,97901.33
2018-09-05T20:38:26.427Z,97905.55
2018-09-05T20:40:55.661Z,97906.69
2018-09-05T20:43:25.064Z,97907.23
2018-09-05T20:45:54.272Z,97906.47
2018-09-05T20:48:23.574Z,97907.52
2018-09-05T20:50:52.819Z,97907.39
2018-09-05T20:53:22.070Z,97903.76
2018-09-05T20:55:51.346Z,97898.94
2018-09-05T20:58:20.593Z,97897.15
2018-09-05T21:00:49.982Z,97897.39
2018-09-05T21:03:19.204Z,97896.74
2018-09-05T21:05:48.441Z,97902.71
2018-09-05T21:08:17.629Z,97899.08
2018-09-05T21:10:46.806Z,97894.30
2018-09-05T21:13:15.976Z,97890.13
2018-09-05T21:15:45.140Z,97895.41
2018-09-05T21:18:14.399Z,97896.50
2018-09-05T21:20:43.485Z,97900.41
2018-09-05T21:23:12.681Z,97893.87
2018-09-05T21:25:41.861Z,97888.41
2018-09-05T21:28:11.028Z,97885.25
2018-09-05T21:30:40.189Z,97890.45
2018-09-05T21:33:09.369Z,97891.09
2018-09-05T21:35:38.532Z,97892.64
2018-09-05T21:38:07.720Z,97903.64
2018-09-05T21:40:36.879Z,97894.70
2018-09-05T21:43:06.055Z,97897.90
2018-09-05T21:45:35.231Z,97895.27
2018-09-05T21:48:04.507Z,97898.66
2018-09-05T21:50:33.669Z,97896.35
2018-09-05T21:53:03.472Z,97894.09
2018-09-05T21:55:33.064Z,97894.39
2018-09-05T21:58:02.248Z,97893.36
2018-09-05T22:00:31.440Z,97895.77
2018-09-05T22:03:00.681Z,97891.22
2018-09-05T22:05:29.852Z,97894.73
2018-09-05T22:07:59.032Z,97891.67
2018-09-05T22:10:28.196Z,97893.69
2018-09-05T22:12:57.368Z,97889.86
2018-09-05T22:15:26.546Z,97892.62
2018-09-05T22:17:55.740Z,97891.95
2018-09-05T22:20:24.904Z,97894.75
2018-09-05T22:22:54.084Z,97892.72
2018-09-05T22:25:23.251Z,97892.27
2018-09-05T22:27:52.425Z,97887.94
2018-09-05T22:30:21.621Z,97896.56
2018-09-05T22:32:50.804Z,97895.66
2018-09-05T22:35:19.962Z,97892.84
2018-09-05T22:37:49.136Z,97889.59
2018-09-05T22:40:18.317Z,97893.09
2018-09-05T22:44:06.652Z,97890.77
2018-09-05T22:46:53.108Z,97890.88
2018-09-05T22:53:22.198Z,97889.11
2018-09-05T22:56:27.430Z,97891.48
2018-09-05T22:59:42.614Z,97893.55
2018-09-05T23:02:33.912Z,97893.37
2018-09-05T23:08:25.699Z,97892.34
2018-09-05T23:12:18.872Z,97891.94
2018-09-05T23:15:08.914Z,97890.53
2018-09-05T23:20:03.847Z,97894.90
2018-09-05T23:22:50.011Z,97889.91
2018-09-05T23:25:19.181Z,97886.89
2018-09-05T23:27:48.342Z,97888.66
2018-09-05T23:30:17.513Z,97890.61
2018-09-05T23:32:46.706Z,97884.32
2018-09-05T23:35:15.903Z,97887.04
2018-09-05T23:37:45.069Z,97879.95
2018-09-05T23:40:14.248Z,97879.86
2018-09-05T23:42:43.410Z,97880.98
2018-09-05T23:45:12.582Z,97873.28
2018-09-05T23:47:41.765Z,97878.23
2018-09-05T23:50:10.938Z,97876.39
2018-09-05T23:52:40.110Z,97871.97
2018-09-05T23:55:09.267Z,97868.97
2018-09-05T23:57:38.455Z,97872.20
